createdAt,value
2022-09-07T00:00:15.583Z,17.63
2022-09-07T00:01:15.603Z,17.69
2022-09-07T00:02:15.623Z,17.60
2022-09-07T00:03:15.761Z,17.57
2022-09-07T00:04:15.736Z,17.66
2022-09-07T00:05:15.684Z,17.65
2022-09-07T00:06:15.704Z,17.63
2022-09-07T00:07:15.725Z,17.60
2022-09-07T00:08:15.743Z,17.65
2022-09-07T00:09:15.768Z,17.54
2022-09-07T00:10:15.785Z,17.54
2022-09-07T00:11:15.806Z,17.52
2022-09-07T00:12:15.826Z,17.57
2022-09-07T00:13:15.845Z,17.56
2022-09-07T00:14:15.866Z,17.56
2022-09-07T00:15:15.885Z,17.56
2022-09-07T00:16:15.967Z,17.52
2022-09-07T00:17:15.928Z,17.59
2022-09-07T00:18:15.947Z,17.59
2022-09-07T00:19:15.967Z,17.49
2022-09-07T00:20:15.988Z,17.50
2022-09-07T00:21:16.024Z,17.39
2022-09-07T00:22:16.028Z,17.37
2022-09-07T00:23:16.050Z,17.42
2022-09-07T00:24:16.070Z,17.46
2022-09-07T00:25:16.090Z,17.38
2022-09-07T00:26:16.114Z,17.32
2022-09-07T00:27:16.127Z,17.38
2022-09-07T00:28:16.148Z,17.31
2022-09-07T00:29:16.169Z,17.27
2022-09-07T00:30:16.187Z,17.30
2022-09-07T00:31:16.255Z,17.20
2022-09-07T00:32:16.228Z,17.16
2022-09-07T00:33:16.248Z,17.16
2022-09-07T00:34:16.269Z,17.16
2022-09-07T00:35:16.290Z,17.10
2022-09-07T00:36:16.308Z,16.97
2022-09-07T00:37:16.327Z,16.97
2022-09-07T00:38:16.349Z,17.01
2022-09-07T00:39:16.366Z,17.05
2022-09-07T00:40:16.389Z,16.99
2022-09-07T00:41:16.408Z,17.04
2022-09-07T00:42:16.428Z,16.89
2022-09-07T00:43:16.447Z,16.89
2022-09-07T00:44:16.467Z,16.91
2022-09-07T00:45:16.493Z,16.86
2022-09-07T00:46:16.560Z,16.82
2022-09-07T00:47:16.529Z,16.77
2022-09-07T00:48:16.551Z,16.76
2022-09-07T00:49:16.566Z,16.76
2022-09-07T00:50:16.588Z,16.76
2022-09-07T00:51:16.605Z,16.77
2022-09-07T00:52:16.626Z,16.72
2022-09-07T00:53:16.647Z,16.72
2022-09-07T00:54:16.667Z,16.59
2022-09-07T00:55:16.684Z,16.61
2022-09-07T00:56:16.706Z,16.57
2022-09-07T00:57:16.723Z,16.58
2022-09-07T00:58:16.743Z,16.59
2022-09-07T00:59:16.763Z,16.54
2022-09-07T01:00:16.784Z,16.51
2022-09-07T01:01:16.858Z,16.44
2022-09-07T01:02:16.901Z,16.46
2022-09-07T01:03:16.854Z,16.44
2022-09-07T01:04:16.871Z,16.34
2022-09-07T01:05:16.879Z,16.32
2022-09-07T01:06:16.902Z,16.31
2022-09-07T01:07:16.930Z,16.34
2022-09-07T01:08:16.946Z,16.41
2022-09-07T01:09:16.959Z,16.36
2022-09-07T01:10:16.979Z,16.39
2022-09-07T01:11:17.000Z,16.40
2022-09-07T01:12:17.018Z,16.31
2022-09-07T01:13:17.036Z,16.31
2022-09-07T01:14:17.058Z,16.29
2022-09-07T01:15:17.075Z,16.24
2022-09-07T01:16:17.127Z,16.28
2022-09-07T01:17:17.114Z,16.28
2022-09-07T01:18:17.135Z,16.24
2022-09-07T01:19:17.154Z,16.18
2022-09-07T01:20:17.173Z,16.21
2022-09-07T01:21:17.192Z,16.13
2022-09-07T01:22:17.215Z,16.12
2022-09-07T01:23:17.230Z,16.13
2022-09-07T01:24:17.251Z,16.13
2022-09-07T01:25:17.274Z,16.08
2022-09-07T01:26:17.291Z,16.00
2022-09-07T01:27:17.312Z,16.03
2022-09-07T01:28:17.327Z,16.06
2022-09-07T01:29:17.350Z,15.99
2022-09-07T01:30:17.367Z,16.03
2022-09-07T01:31:17.428Z,15.99
2022-09-07T01:32:17.405Z,15.90
2022-09-07T01:33:17.422Z,15.94
2022-09-07T01:34:17.444Z,15.92
2022-09-07T01:35:17.463Z,15.88
2022-09-07T01:36:17.484Z,15.85
2022-09-07T01:37:17.501Z,15.85
2022-09-07T01:38:17.518Z,15.94
2022-09-07T01:39:17.539Z,15.87
2022-09-07T01:40:17.558Z,15.73
2022-09-07T01:41:17.577Z,15.70
2022-09-07T01:42:17.597Z,15.80
2022-09-07T01:43:17.613Z,15.76
2022-09-07T01:44:17.633Z,15.81
2022-09-07T01:45:17.657Z,15.76
2022-09-07T01:46:17.739Z,15.70
2022-09-07T01:47:17.694Z,15.66
2022-09-07T01:48:17.714Z,15.66
2022-09-07T01:49:17.732Z,15.62
2022-09-07T01:50:17.752Z,15.66
2022-09-07T01:51:17.768Z,15.59
2022-09-07T01:52:17.786Z,15.66
2022-09-07T01:53:17.812Z,15.65
2022-09-07T01:54:17.826Z,15.62
2022-09-07T01:55:17.846Z,15.66
2022-09-07T01:56:17.863Z,15.50
2022-09-07T01:57:17.886Z,15.52
2022-09-07T01:58:17.902Z,15.51
2022-09-07T01:59:17.921Z,15.52
2022-09-07T02:00:17.941Z,15.48
2022-09-07T02:01:17.979Z,15.54
2022-09-07T02:02:18.078Z,15.47
2022-09-07T02:03:17.998Z,15.43
2022-09-07T02:04:18.014Z,15.50
2022-09-07T02:05:18.034Z,15.47
2022-09-07T02:06:18.055Z,15.41
2022-09-07T02:07:18.073Z,15.41
2022-09-07T02:08:18.092Z,15.47
2022-09-07T02:09:18.111Z,15.39
2022-09-07T02:10:18.129Z,15.41
2022-09-07T02:11:18.149Z,15.35
2022-09-07T02:12:18.167Z,15.45
2022-09-07T02:13:18.187Z,15.41
2022-09-07T02:14:18.205Z,15.44
2022-09-07T02:15:18.222Z,15.36
2022-09-07T02:16:18.283Z,15.33
2022-09-07T02:17:18.259Z,15.37
2022-09-07T02:18:18.280Z,15.37
2022-09-07T02:19:18.299Z,15.33
2022-09-07T02:20:18.315Z,15.29
2022-09-07T02:21:18.340Z,15.33
2022-09-07T02:22:18.357Z,15.27
2022-09-07T02:23:18.374Z,15.25
2022-09-07T02:24:18.393Z,15.29
2022-09-07T02:25:18.413Z,15.26
2022-09-07T02:26:18.430Z,15.27
2022-09-07T02:27:18.448Z,15.32
2022-09-07T02:28:18.468Z,15.18
2022-09-07T02:29:18.487Z,15.17
2022-09-07T02:30:18.506Z,15.19
2022-09-07T02:31:18.636Z,15.27
2022-09-07T02:32:18.542Z,15.27
2022-09-07T02:33:18.561Z,15.15
2022-09-07T02:34:18.580Z,15.07
2022-09-07T02:35:18.598Z,15.18
2022-09-07T02:36:18.617Z,15.14
2022-09-07T02:37:18.687Z,15.10
2022-09-07T02:38:18.658Z,15.10
2022-09-07T02:39:18.674Z,15.14
2022-09-07T02:40:18.696Z,15.10
2022-09-07T02:41:18.711Z,15.08
2022-09-07T02:42:18.730Z,15.10
2022-09-07T02:43:18.749Z,15.05
2022-09-07T02:44:18.769Z,15.10
2022-09-07T02:45:18.793Z,15.00
2022-09-07T02:46:18.899Z,14.99
2022-09-07T02:47:18.821Z,15.04
2022-09-07T02:48:18.851Z,14.96
2022-09-07T02:49:18.871Z,14.99
2022-09-07T02:50:18.884Z,15.00
2022-09-07T02:51:18.900Z,15.02
2022-09-07T02:52:18.915Z,15.00
2022-09-07T02:53:18.935Z,15.04
2022-09-07T02:54:18.953Z,14.93
2022-09-07T02:55:18.972Z,14.99
2022-09-07T02:56:18.989Z,14.93
2022-09-07T02:57:19.011Z,14.94
2022-09-07T02:58:19.031Z,14.90
2022-09-07T02:59:19.048Z,14.94
2022-09-07T03:00:19.064Z,14.93
2022-09-07T03:01:19.178Z,14.90
2022-09-07T03:02:19.189Z,14.87
2022-09-07T03:03:19.119Z,14.85
2022-09-07T03:04:19.136Z,14.85
2022-09-07T03:05:19.160Z,14.81
2022-09-07T03:06:19.175Z,14.78
2022-09-07T03:07:19.197Z,14.77
2022-09-07T03:08:19.212Z,14.78
2022-09-07T03:09:19.230Z,14.77
2022-09-07T03:10:19.248Z,14.74
2022-09-07T03:11:19.267Z,14.74
2022-09-07T03:12:19.284Z,14.73
2022-09-07T03:13:19.305Z,14.71
2022-09-07T03:14:19.322Z,14.78
2022-09-07T03:15:19.342Z,14.71
2022-09-07T03:16:19.401Z,14.67
2022-09-07T03:17:19.380Z,14.63
2022-09-07T03:18:19.396Z,14.66
2022-09-07T03:19:19.420Z,14.63
2022-09-07T03:20:19.432Z,14.61
2022-09-07T03:21:19.451Z,14.67
2022-09-07T03:22:19.468Z,14.63
2022-09-07T03:23:19.487Z,14.66
2022-09-07T03:24:19.508Z,14.66
2022-09-07T03:25:19.526Z,14.55
2022-09-07T03:26:19.546Z,14.63
2022-09-07T03:27:19.561Z,14.48
2022-09-07T03:28:19.581Z,14.51
2022-09-07T03:29:19.598Z,14.62
2022-09-07T03:30:19.620Z,14.61
2022-09-07T03:31:19.704Z,14.61
2022-09-07T03:32:19.653Z,14.55
2022-09-07T03:33:19.680Z,14.56
2022-09-07T03:34:19.693Z,14.49
2022-09-07T03:35:19.708Z,14.56
2022-09-07T03:36:19.726Z,14.55
2022-09-07T03:37:19.744Z,14.45
2022-09-07T03:38:19.762Z,14.48
2022-09-07T03:39:19.780Z,14.45
2022-09-07T03:40:19.798Z,14.43
2022-09-07T03:41:19.815Z,14.43
2022-09-07T03:42:19.838Z,14.45
2022-09-07T03:43:19.853Z,14.43
2022-09-07T03:44:19.873Z,14.41
2022-09-07T03:45:19.893Z,14.37
2022-09-07T03:46:19.952Z,14.33
2022-09-07T03:47:19.928Z,14.44
2022-09-07T03:48:19.946Z,14.31
2022-09-07T03:49:19.963Z,14.26
2022-09-07T03:50:19.981Z,14.33
2022-09-07T03:51:19.998Z,14.31
2022-09-07T03:52:20.018Z,14.30
2022-09-07T03:53:20.036Z,14.22
2022-09-07T03:54:20.055Z,14.31
2022-09-07T03:55:20.071Z,14.23
2022-09-07T03:56:20.090Z,14.20
2022-09-07T03:57:20.111Z,14.25
2022-09-07T03:58:20.127Z,14.23
2022-09-07T03:59:20.144Z,14.25
2022-09-07T04:00:20.161Z,14.20
2022-09-07T04:01:20.254Z,14.23
2022-09-07T04:02:20.228Z,14.22
2022-09-07T04:03:20.217Z,14.15
2022-09-07T04:04:20.234Z,14.22
2022-09-07T04:05:20.256Z,14.18
2022-09-07T04:06:20.274Z,14.20
2022-09-07T04:07:20.302Z,14.18
2022-09-07T04:08:20.340Z,14.19
2022-09-07T04:09:20.328Z,14.22
2022-09-07T04:10:20.344Z,14.18
2022-09-07T04:11:20.365Z,14.20
2022-09-07T04:12:20.383Z,14.04
2022-09-07T04:13:20.398Z,14.13
2022-09-07T04:14:20.417Z,14.20
2022-09-07T04:15:20.433Z,14.11
2022-09-07T04:16:20.537Z,14.11
2022-09-07T04:17:20.471Z,14.12
2022-09-07T04:18:20.488Z,14.05
2022-09-07T04:19:20.506Z,14.08
2022-09-07T04:20:20.522Z,14.08
2022-09-07T04:21:20.541Z,14.16
2022-09-07T04:22:20.560Z,14.16
2022-09-07T04:23:20.576Z,14.07
2022-09-07T04:24:20.594Z,14.12
2022-09-07T04:25:20.613Z,14.04
2022-09-07T04:26:20.634Z,14.11
2022-09-07T04:27:20.649Z,14.04
2022-09-07T04:28:20.668Z,14.05
2022-09-07T04:29:20.684Z,14.03
2022-09-07T04:30:20.703Z,14.03
2022-09-07T04:31:20.839Z,14.01
2022-09-07T04:32:20.744Z,14.03
2022-09-07T04:33:20.757Z,14.13
2022-09-07T04:34:20.778Z,14.00
2022-09-07T04:35:20.796Z,14.11
2022-09-07T04:36:20.813Z,14.07
2022-09-07T04:37:20.828Z,14.08
2022-09-07T04:38:20.848Z,14.07
2022-09-07T04:39:20.864Z,14.08
2022-09-07T04:40:20.881Z,14.11
2022-09-07T04:41:20.902Z,14.11
2022-09-07T04:42:20.921Z,14.19
2022-09-07T04:43:20.935Z,14.08
2022-09-07T04:44:20.955Z,14.08
2022-09-07T04:45:20.973Z,14.11
2022-09-07T04:46:21.103Z,14.08
2022-09-07T04:47:21.009Z,14.13
2022-09-07T04:48:21.028Z,14.13
2022-09-07T04:49:21.044Z,14.18
2022-09-07T04:50:21.065Z,14.13
2022-09-07T04:51:21.093Z,14.15
2022-09-07T04:52:21.104Z,14.05
2022-09-07T04:53:21.118Z,14.13
2022-09-07T04:54:21.134Z,14.15
2022-09-07T04:55:21.151Z,14.15
2022-09-07T04:56:21.170Z,14.08
2022-09-07T04:57:21.187Z,14.16
2022-09-07T04:58:21.206Z,14.19
2022-09-07T04:59:21.224Z,14.15
2022-09-07T05:00:21.240Z,14.15
2022-09-07T05:01:21.299Z,14.16
2022-09-07T05:02:21.348Z,14.18
2022-09-07T05:03:21.295Z,14.22
2022-09-07T05:04:21.314Z,14.20
2022-09-07T05:05:21.333Z,14.22
2022-09-07T05:06:21.349Z,14.23
2022-09-07T05:07:21.370Z,14.13
2022-09-07T05:08:21.385Z,14.22
2022-09-07T05:09:21.403Z,14.15
2022-09-07T05:10:21.422Z,14.22
2022-09-07T05:11:24.975Z,14.12
2022-09-07T05:12:21.455Z,14.23
2022-09-07T05:13:21.477Z,14.22
2022-09-07T05:14:21.493Z,14.26
2022-09-07T05:15:21.513Z,14.19
2022-09-07T05:16:21.587Z,14.23
2022-09-07T05:17:21.548Z,14.25
2022-09-07T05:18:21.569Z,14.34
2022-09-07T05:19:21.582Z,14.31
2022-09-07T05:20:21.601Z,14.30
2022-09-07T05:21:21.620Z,14.37
2022-09-07T05:22:21.637Z,14.34
2022-09-07T05:23:21.657Z,14.36
2022-09-07T05:24:21.677Z,14.36
2022-09-07T05:25:21.694Z,14.31
2022-09-07T05:26:21.710Z,14.43
2022-09-07T05:27:21.726Z,14.48
2022-09-07T05:28:21.747Z,14.43
2022-09-07T05:31:21.836Z,14.44
2022-09-07T05:32:21.841Z,14.44
2022-09-07T05:33:22.426Z,14.38
2022-09-07T05:35:21.872Z,14.53
2022-09-07T05:36:21.892Z,14.56
2022-09-07T05:37:21.960Z,14.51
2022-09-07T05:38:21.929Z,14.51
2022-09-07T05:39:21.947Z,14.55
2022-09-07T05:40:21.964Z,14.61
2022-09-07T05:41:21.982Z,14.55
2022-09-07T05:42:22.002Z,14.52
2022-09-07T05:43:22.022Z,14.55
2022-09-07T05:45:22.057Z,14.58
2022-09-07T05:46:22.075Z,14.63
2022-09-07T05:47:22.092Z,14.66
2022-09-07T05:48:22.110Z,14.62
2022-09-07T05:49:22.128Z,14.61
2022-09-07T05:50:22.147Z,14.61
2022-09-07T05:51:22.169Z,14.66
2022-09-07T05:52:22.183Z,14.66
2022-09-07T05:53:22.199Z,14.77
2022-09-07T05:54:22.218Z,14.63
2022-09-07T05:55:30.084Z,14.73
2022-09-07T05:56:22.255Z,14.73
2022-09-07T05:57:22.275Z,14.79
2022-09-07T05:58:22.296Z,14.81
2022-09-07T05:59:22.313Z,14.82
2022-09-07T06:00:22.330Z,14.90
2022-09-07T06:01:22.349Z,14.87
2022-09-07T06:02:22.483Z,14.92
2022-09-07T06:03:22.476Z,14.89
2022-09-07T06:04:22.403Z,14.93
2022-09-07T06:05:22.429Z,14.93
2022-09-07T06:06:22.441Z,14.99
2022-09-07T06:07:23.235Z,14.99
2022-09-07T06:08:22.478Z,15.02
2022-09-07T06:09:22.496Z,15.05
2022-09-07T06:11:22.559Z,15.08
2022-09-07T06:12:22.557Z,15.10
2022-09-07T06:13:22.573Z,15.11
2022-09-07T06:14:22.594Z,15.11
2022-09-07T06:15:22.609Z,15.26
2022-09-07T06:16:22.692Z,15.27
2022-09-07T06:17:22.652Z,15.30
2022-09-07T06:18:22.685Z,15.27
2022-09-07T06:19:22.683Z,15.33
2022-09-07T06:20:22.702Z,15.43
2022-09-07T06:21:22.762Z,15.43
2022-09-07T06:22:22.738Z,15.44
2022-09-07T06:23:22.759Z,15.50
2022-09-07T06:24:22.777Z,15.54
2022-09-07T06:25:22.799Z,15.57
2022-09-07T06:26:22.815Z,15.55
2022-09-07T06:27:22.836Z,15.67
2022-09-07T06:28:22.854Z,15.66
2022-09-07T06:29:22.872Z,15.80
2022-09-07T06:30:22.891Z,15.81
2022-09-07T06:31:23.297Z,15.91
2022-09-07T06:33:22.955Z,15.91
2022-09-07T06:34:22.968Z,16.00
2022-09-07T06:35:22.986Z,16.17
2022-09-07T06:36:23.007Z,16.17
2022-09-07T06:37:23.030Z,16.21
2022-09-07T06:38:23.046Z,16.22
2022-09-07T06:39:23.065Z,16.26
2022-09-07T06:40:23.089Z,16.28
2022-09-07T06:42:23.126Z,16.36
2022-09-07T06:43:23.144Z,16.43
2022-09-07T06:44:23.165Z,16.41
2022-09-07T06:45:23.200Z,16.55
2022-09-07T06:47:23.222Z,16.66
2022-09-07T06:48:23.245Z,16.66
2022-09-07T06:49:23.261Z,16.72
2022-09-07T06:50:23.281Z,16.72
2022-09-07T06:51:23.301Z,16.80
2022-09-07T06:52:23.479Z,16.83
2022-09-07T06:53:40.453Z,16.83
2022-09-07T06:55:23.384Z,16.86
2022-09-07T06:56:23.404Z,17.09
2022-09-07T06:57:23.425Z,16.95
2022-09-07T06:58:23.443Z,17.04
2022-09-07T06:59:23.461Z,17.07
2022-09-07T07:00:23.492Z,17.12
2022-09-07T07:01:23.556Z,17.22
2022-09-07T07:02:23.522Z,17.19
2022-09-07T07:03:23.591Z,17.34
2022-09-07T07:04:23.564Z,17.42
2022-09-07T07:05:23.586Z,17.39
2022-09-07T07:06:23.605Z,17.41
2022-09-07T07:07:23.625Z,17.50
2022-09-07T07:08:23.649Z,17.46
2022-09-07T07:09:23.670Z,17.56
2022-09-07T07:10:24.953Z,17.52
2022-09-07T07:11:23.706Z,17.50
2022-09-07T07:13:02.846Z,17.69
2022-09-07T07:14:02.864Z,17.71
2022-09-07T07:15:02.886Z,17.78
2022-09-07T07:16:02.963Z,17.84
2022-09-07T07:17:02.927Z,17.86
2022-09-07T07:18:19.930Z,17.79
2022-09-07T07:19:02.970Z,17.86
2022-09-07T07:20:02.989Z,17.91
2022-09-07T07:21:03.009Z,17.91
2022-09-07T07:22:18.590Z,18.06
2022-09-07T07:23:03.050Z,18.00
2022-09-07T07:24:07.493Z,18.16
2022-09-07T07:25:03.124Z,18.18
2022-09-07T07:26:03.112Z,18.24
2022-09-07T07:27:03.134Z,18.34
2022-09-07T07:29:03.921Z,18.51
2022-09-07T07:30:03.198Z,18.57
2022-09-07T07:31:07.172Z,18.66
2022-09-07T07:32:03.238Z,18.89
2022-09-07T07:33:03.305Z,18.94
2022-09-07T07:34:03.302Z,19.07
2022-09-07T07:35:03.413Z,19.12
2022-09-07T07:36:03.323Z,19.29
2022-09-07T07:37:03.346Z,19.32
2022-09-07T07:39:03.507Z,19.41
2022-09-07T07:40:21.344Z,19.42
2022-09-07T07:42:05.544Z,19.48
2022-09-07T07:43:03.477Z,19.48
2022-09-07T07:44:03.497Z,19.63
2022-09-07T07:46:05.604Z,19.84
2022-09-07T07:47:03.602Z,19.77
2022-09-07T07:48:03.598Z,19.85
2022-09-07T07:49:03.613Z,19.96
2022-09-07T07:51:09.882Z,19.90
2022-09-07T07:54:03.718Z,19.93
2022-09-07T07:55:43.010Z,19.81
2022-09-07T07:56:03.761Z,19.79
2022-09-07T07:57:04.220Z,19.75
2022-09-07T07:58:03.806Z,19.77
2022-09-07T07:59:03.833Z,19.77
2022-09-07T08:00:03.850Z,19.79
2022-09-07T08:01:03.917Z,19.78
2022-09-07T08:02:03.999Z,19.78
2022-09-07T08:03:03.919Z,19.74
2022-09-07T08:04:03.939Z,19.74
2022-09-07T08:05:03.960Z,19.74
2022-09-07T08:06:03.982Z,19.63
2022-09-07T08:07:09.446Z,19.74
2022-09-07T08:08:04.028Z,19.72
2022-09-07T08:09:04.051Z,19.67
2022-09-07T08:10:04.074Z,19.70
2022-09-07T08:11:04.093Z,19.67
2022-09-07T08:12:04.133Z,19.75
2022-09-07T08:13:04.139Z,19.77
2022-09-07T08:14:04.158Z,19.72
2022-09-07T08:15:04.180Z,19.71
2022-09-07T08:16:04.287Z,19.67
2022-09-07T08:17:04.228Z,19.78
2022-09-07T08:18:04.243Z,19.79
2022-09-07T08:19:04.297Z,19.90
2022-09-07T08:20:04.290Z,19.77
2022-09-07T08:21:04.312Z,19.89
2022-09-07T08:22:04.338Z,19.89
2022-09-07T08:23:04.358Z,19.82
2022-09-07T08:24:04.379Z,19.82
2022-09-07T08:25:04.398Z,19.97
2022-09-07T08:26:04.418Z,19.96
2022-09-07T08:27:04.572Z,19.96
2022-09-07T08:28:04.470Z,20.03
2022-09-07T08:29:04.490Z,20.03
2022-09-07T08:30:04.509Z,20.03
2022-09-07T08:31:04.577Z,20.04
2022-09-07T08:32:04.567Z,20.14
2022-09-07T08:33:04.592Z,20.15
2022-09-07T08:34:04.599Z,20.17
2022-09-07T08:35:04.623Z,20.15
2022-09-07T08:36:04.646Z,20.18
2022-09-07T08:37:04.663Z,20.26
2022-09-07T08:38:04.685Z,20.22
2022-09-07T08:39:04.707Z,20.33
2022-09-07T08:40:04.758Z,20.34
2022-09-07T08:41:04.752Z,20.36
2022-09-07T08:42:04.770Z,20.36
2022-09-07T08:43:04.794Z,20.39
2022-09-07T08:44:04.818Z,20.49
2022-09-07T08:45:04.839Z,20.53
2022-09-07T08:46:04.864Z,20.55
2022-09-07T08:47:04.995Z,20.59
2022-09-07T08:48:04.908Z,20.60
2022-09-07T08:49:04.927Z,20.74
2022-09-07T08:50:04.958Z,20.78
2022-09-07T08:51:04.972Z,20.83
2022-09-07T08:52:04.994Z,20.77
2022-09-07T08:53:05.017Z,20.93
2022-09-07T08:54:05.041Z,20.90
2022-09-07T08:55:05.066Z,21.01
2022-09-07T08:56:05.084Z,21.04
2022-09-07T08:57:20.865Z,21.15
2022-09-07T08:58:05.130Z,21.25
2022-09-07T08:59:05.152Z,21.15
2022-09-07T09:00:05.179Z,21.22
2022-09-07T09:04:22.004Z,21.47
2022-09-07T09:05:20.595Z,21.54
2022-09-07T09:06:05.430Z,21.58
2022-09-07T09:07:05.454Z,21.62
2022-09-07T09:08:05.355Z,21.74
2022-09-07T09:09:05.379Z,21.80
2022-09-07T09:10:05.399Z,21.84
2022-09-07T09:11:05.424Z,21.74
2022-09-07T09:12:05.449Z,21.85
2022-09-07T09:13:05.470Z,21.89
2022-09-07T09:14:05.495Z,21.99
2022-09-07T09:15:05.518Z,21.91
2022-09-07T09:16:05.577Z,22.00
2022-09-07T09:17:05.565Z,22.07
2022-09-07T09:18:05.585Z,22.00
2022-09-07T09:19:05.609Z,22.18
2022-09-07T09:20:05.631Z,22.21
2022-09-07T09:21:05.656Z,22.19
2022-09-07T09:22:05.678Z,22.26
2022-09-07T09:23:05.705Z,22.28
2022-09-07T09:24:05.725Z,22.30
2022-09-07T09:25:05.758Z,22.25
2022-09-07T09:26:05.771Z,22.31
2022-09-07T09:27:05.794Z,22.37
2022-09-07T09:28:05.825Z,22.40
2022-09-07T09:29:05.841Z,22.36
2022-09-07T09:30:05.863Z,22.38
2022-09-07T09:31:05.971Z,22.43
2022-09-07T09:32:05.911Z,22.46
2022-09-07T09:33:05.936Z,22.43
2022-09-07T09:34:05.957Z,22.53
2022-09-07T09:35:05.983Z,22.59
2022-09-07T09:36:06.005Z,22.55
2022-09-07T09:37:06.037Z,22.59
2022-09-07T09:38:06.050Z,22.62
2022-09-07T09:39:06.075Z,22.71
2022-09-07T09:40:06.146Z,22.73
2022-09-07T09:41:06.123Z,22.83
2022-09-07T09:42:06.144Z,22.76
2022-09-07T09:43:06.172Z,22.91
2022-09-07T09:44:06.193Z,22.86
2022-09-07T09:45:06.215Z,22.89
2022-09-07T09:46:13.336Z,23.01
2022-09-07T09:48:06.287Z,22.99
2022-09-07T09:49:06.308Z,23.04
2022-09-07T09:50:06.688Z,23.14
2022-09-07T09:53:06.405Z,23.21
2022-09-07T09:54:06.428Z,23.26
2022-09-07T09:55:30.640Z,23.18
2022-09-07T09:56:06.478Z,23.23
2022-09-07T09:57:06.504Z,23.23
2022-09-07T09:59:56.893Z,23.32
2022-09-07T10:00:10.509Z,23.40
2022-09-07T10:01:22.668Z,23.37
2022-09-07T10:04:11.714Z,23.48
2022-09-07T10:05:06.694Z,23.52
2022-09-07T10:06:06.715Z,23.58
2022-09-07T10:07:06.740Z,23.64
2022-09-07T10:08:06.764Z,23.64
2022-09-07T10:09:06.787Z,23.79
2022-09-07T10:10:06.811Z,23.88
2022-09-07T10:11:06.838Z,23.84
2022-09-07T10:12:07.562Z,23.88
2022-09-07T10:13:06.884Z,23.92
2022-09-07T10:14:06.909Z,23.96
2022-09-07T10:15:06.937Z,24.10
2022-09-07T10:16:07.081Z,24.06
2022-09-07T10:17:06.983Z,24.25
2022-09-07T10:18:07.010Z,24.11
2022-09-07T10:19:07.040Z,24.22
2022-09-07T10:20:07.054Z,24.36
2022-09-07T10:21:07.081Z,24.46
2022-09-07T10:22:07.110Z,24.59
2022-09-07T10:23:07.140Z,24.58
2022-09-07T10:24:07.153Z,24.75
2022-09-07T10:25:07.181Z,24.77
2022-09-07T10:26:07.211Z,24.68
2022-09-07T10:27:07.229Z,24.81
2022-09-07T10:28:07.254Z,24.79
2022-09-07T10:29:07.726Z,24.85
2022-09-07T10:30:07.310Z,24.97
2022-09-07T10:31:11.018Z,24.92
2022-09-07T10:32:07.356Z,24.94
2022-09-07T10:33:07.383Z,24.99
2022-09-07T10:35:07.431Z,25.15
2022-09-07T10:36:07.458Z,25.22
2022-09-07T10:37:07.484Z,25.22
2022-09-07T10:38:07.509Z,25.36
2022-09-07T10:39:07.533Z,25.48
2022-09-07T10:40:07.587Z,25.37
2022-09-07T10:41:07.585Z,25.54
2022-09-07T10:42:07.611Z,25.55
2022-09-07T10:43:22.996Z,25.54
2022-09-07T10:44:07.665Z,25.70
2022-09-07T10:45:07.688Z,25.74
2022-09-07T10:46:07.754Z,25.78
2022-09-07T10:47:07.779Z,25.91
2022-09-07T10:48:07.766Z,25.86
2022-09-07T10:49:07.794Z,25.96
2022-09-07T10:50:23.133Z,26.06
2022-09-07T10:51:14.052Z,26.08
2022-09-07T10:52:07.869Z,26.08
2022-09-07T10:53:29.981Z,26.08
2022-09-07T10:55:07.951Z,26.26
2022-09-07T10:56:07.975Z,26.19
2022-09-07T10:57:08.002Z,26.22
2022-09-07T10:58:08.028Z,26.22
2022-09-07T10:59:08.057Z,26.22
2022-09-07T11:00:08.613Z,26.29
2022-09-07T11:01:08.157Z,26.26
2022-09-07T11:02:08.134Z,26.33
2022-09-07T11:04:08.189Z,26.41
2022-09-07T11:05:08.216Z,26.48
2022-09-07T11:06:08.249Z,26.51
2022-09-07T11:07:10.333Z,26.49
2022-09-07T11:08:08.293Z,26.51
2022-09-07T11:09:16.558Z,26.44
2022-09-07T11:10:08.435Z,26.51
2022-09-07T11:11:08.372Z,26.52
2022-09-07T11:12:08.457Z,26.53
2022-09-07T11:13:08.426Z,26.49
2022-09-07T11:14:13.603Z,26.61
2022-09-07T11:15:08.486Z,26.64
2022-09-07T11:16:08.723Z,26.67
2022-09-07T11:17:08.627Z,26.76
2022-09-07T11:18:08.559Z,26.89
2022-09-07T11:20:08.677Z,26.92
2022-09-07T11:21:08.637Z,27.03
2022-09-07T11:22:08.667Z,27.08
2022-09-07T11:23:10.871Z,27.23
2022-09-07T11:24:08.720Z,27.25
2022-09-07T11:26:08.773Z,27.34
2022-09-07T11:27:08.801Z,27.43
2022-09-07T11:28:08.827Z,27.37
2022-09-07T11:30:08.882Z,27.38
2022-09-07T11:31:08.929Z,27.50
2022-09-07T11:32:08.943Z,27.47
2022-09-07T11:33:08.967Z,27.40
2022-09-07T11:34:24.609Z,27.48
2022-09-07T11:35:09.027Z,27.48
2022-09-07T11:36:12.228Z,27.50
2022-09-07T11:37:09.072Z,27.47
2022-09-07T11:38:09.100Z,27.52
2022-09-07T11:39:09.128Z,27.55
2022-09-07T11:40:09.353Z,27.44
2022-09-07T11:41:09.183Z,27.48
2022-09-07T11:43:11.419Z,27.48
2022-09-07T11:44:09.264Z,27.47
2022-09-07T11:45:09.292Z,27.47
2022-09-07T11:46:09.351Z,27.40
2022-09-07T11:47:09.345Z,27.38
2022-09-07T11:48:09.375Z,27.44
2022-09-07T11:49:09.399Z,27.43
2022-09-07T11:50:09.427Z,27.48
2022-09-07T11:51:09.454Z,27.55
2022-09-07T11:52:09.481Z,27.47
2022-09-07T11:53:09.508Z,27.45
2022-09-07T11:54:09.534Z,27.53
2022-09-07T11:55:09.564Z,27.55
2022-09-07T11:56:09.591Z,27.48
2022-09-07T11:57:09.616Z,27.61
2022-09-07T11:58:09.642Z,27.55
2022-09-07T11:59:09.668Z,27.58
2022-09-07T12:00:09.699Z,27.61
2022-09-07T12:01:09.727Z,27.67
2022-09-07T12:02:09.773Z,27.63
2022-09-07T12:03:09.812Z,27.67
2022-09-07T12:04:14.651Z,27.61
2022-09-07T12:05:09.834Z,27.75
2022-09-07T12:06:09.861Z,27.76
2022-09-07T12:07:09.888Z,27.76
2022-09-07T12:08:09.914Z,27.85
2022-09-07T12:09:09.941Z,27.76
2022-09-07T12:10:09.968Z,27.81
2022-09-07T12:11:09.996Z,27.86
2022-09-07T12:12:10.027Z,27.97
2022-09-07T12:13:10.049Z,28.00
2022-09-07T12:14:10.082Z,27.98
2022-09-07T12:15:10.109Z,28.04
2022-09-07T12:16:10.173Z,28.13
2022-09-07T12:17:10.164Z,28.20
2022-09-07T12:18:10.189Z,28.27
2022-09-07T12:19:10.221Z,28.38
2022-09-07T12:20:10.246Z,28.40
2022-09-07T12:21:10.285Z,28.50
2022-09-07T12:22:10.300Z,28.47
2022-09-07T12:23:10.327Z,28.62
2022-09-07T12:24:10.357Z,28.50
2022-09-07T12:25:10.383Z,28.62
2022-09-07T12:26:10.420Z,28.55
2022-09-07T12:27:10.440Z,28.68
2022-09-07T12:28:10.471Z,28.67
2022-09-07T12:29:10.497Z,28.57
2022-09-07T12:30:10.524Z,28.56
2022-09-07T12:31:10.577Z,28.55
2022-09-07T12:33:10.608Z,28.41
2022-09-07T12:34:10.640Z,28.49
2022-09-07T12:35:10.663Z,28.49
2022-09-07T12:36:10.692Z,28.37
2022-09-07T12:37:12.579Z,28.43
2022-09-07T12:38:10.746Z,28.38
2022-09-07T12:39:10.774Z,28.38
2022-09-07T12:40:10.844Z,28.35
2022-09-07T12:41:10.836Z,28.35
2022-09-07T12:42:40.273Z,28.30
2022-09-07T12:43:10.885Z,28.19
2022-09-07T12:44:10.914Z,28.19
2022-09-07T12:45:10.942Z,28.09
2022-09-07T12:46:11.004Z,28.04
2022-09-07T12:47:10.996Z,28.06
2022-09-07T12:48:11.022Z,28.01
2022-09-07T12:49:11.051Z,27.98
2022-09-07T12:50:11.082Z,27.91
2022-09-07T12:51:11.114Z,27.86
2022-09-07T12:52:15.599Z,27.64
2022-09-07T12:53:11.162Z,27.81
2022-09-07T12:54:11.186Z,27.76
2022-09-07T12:55:27.265Z,27.55
2022-09-07T12:56:18.316Z,27.48
2022-09-07T12:58:11.295Z,27.38
2022-09-07T12:59:18.943Z,27.40
2022-09-07T13:00:11.347Z,27.43
2022-09-07T13:01:11.459Z,27.37
2022-09-07T13:02:11.549Z,27.29
2022-09-07T13:03:49.613Z,27.26
2022-09-07T13:04:11.663Z,27.26
2022-09-07T13:05:11.492Z,27.25
2022-09-07T13:06:11.509Z,27.23
2022-09-07T13:07:11.534Z,27.13
2022-09-07T13:08:11.572Z,27.11
2022-09-07T13:09:11.586Z,27.13
2022-09-07T13:10:11.613Z,27.03
2022-09-07T13:11:11.642Z,27.04
2022-09-07T13:12:52.868Z,27.18
2022-09-07T13:13:11.693Z,27.11
2022-09-07T13:14:12.068Z,27.07
2022-09-07T13:15:22.473Z,26.96
2022-09-07T13:16:12.010Z,27.03
2022-09-07T13:17:18.783Z,27.03
2022-09-07T13:18:11.825Z,27.01
2022-09-07T13:19:11.853Z,27.04
2022-09-07T13:20:11.877Z,27.01
2022-09-07T13:21:11.913Z,26.98
2022-09-07T13:22:11.931Z,27.08
2022-09-07T13:23:11.959Z,27.05
2022-09-07T13:25:12.011Z,27.01
2022-09-07T13:26:12.038Z,27.00
2022-09-07T13:27:12.063Z,26.97
2022-09-07T13:28:12.090Z,27.04